Nearby METAR Reports

 

KOKB - Oceanside, California, USA
Distance from station: W 1mi, 2km
Updated: Mon, 20-May-2024 5:52pm PDT
Few Clouds
Few Clouds
 Wind from WSW
Wind: WSW 10 mph , 17 km/h
Temperature: 66°F , 19°C
Dew Point: 54°F , 12°C
Humidity: 64%
Barometer: 29.93 inHg , 1013.5 hPa
Clouds: Few Clouds
Visibility: 9 miles , 14 km
Cloud details: Few Clouds 2200 ft
2024/05/21 00:52 KOKB 210052Z AUTO 25009KT 9SM FEW022 19/12 A2993 RMK AO2 SLP136 T01890117
KNFG - Camp Pendleton, California, USA
Distance from station: N 5mi, 8km
Updated: Mon, 20-May-2024 4:55pm PDT
NOT Current
Few Clouds
Few Clouds
 Wind from WSW
Wind: WSW 9 mph , 15 km/h
Temperature: 68°F , 20°C
Dew Point: 54°F , 12°C
Humidity: 60%
Barometer: 29.94 inHg , 1013.9 hPa
Clouds: Few Clouds
Visibility: 10 miles , 16 km
Cloud details: Few Clouds 4000 ft
2024/05/20 23:55 KNFG 202355Z AUTO 24008KT 10SM FEW040 20/12 A2994 RMK AO2 SLP137 T02000117 10222 20194 58014
 
KCRQ - Carlsbad, California, USA
Distance from station: SSE 6mi, 10km
Updated: Mon, 20-May-2024 5:53pm PDT
Overcast
Overcast
 Wind from W
Wind: W 8 mph , 13 km/h
Temperature: 61°F , 16°C
Dew Point: 52°F , 11°C
Humidity: 72%
Barometer: 29.94 inHg , 1013.9 hPa
Clouds: Overcast
Visibility: 10 miles , 16 km
Cloud details: Overcast 1700 ft
2024/05/21 00:53 KCRQ 210053Z 26007KT 10SM OVC017 16/11 A2994 RMK AO2 SLP136 T01560106
KL18 - Fallbrook, California, USA
Distance from station: NNE 10mi, 17km
Updated: Mon, 20-May-2024 5:55pm PDT
Clear
Clear
 Wind from SSW
Wind: SSW 6 mph , 9 km/h
Temperature: 64°F , 18°C
Dew Point: 52°F , 11°C
Humidity: 64%
Barometer: 29.94 inHg , 1013.9 hPa
Clouds: Clear
Visibility: 10 miles , 16 km
2024/05/21 00:55 KL18 210055Z AUTO 21005KT 10SM CLR 18/11 A2994 RMK AO2
 
KNKX - Miramar Nas/San, California, USA
Distance from station: SSE 26mi, 43km
Updated: Mon, 20-May-2024 5:55pm PDT
Clear
Clear
 Wind from W
Wind: W 8 mph , 13 km/h
Temperature: 61°F , 16°C
Dew Point: 52°F , 11°C
Humidity: 72%
Barometer: 29.94 inHg , 1013.9 hPa
Clouds: Clear
Visibility: 10 miles , 16 km
2024/05/21 00:55 KNKX 210055Z 27007KT 10SM CLR 16/11 A2994 RMK AO2 SLP136 T01610106
KF70 - Murrieta/Temecul, California, USA
Distance from station: NNE 27mi, 43km
Updated: Mon, 20-May-2024 5:55pm PDT
Clear
Clear
 Wind from SSW
Wind: SSW 12 mph , 19 km/h
Temperature: 68°F , 20°C
Dew Point: 50°F , 10°C
Humidity: 53%
Barometer: 29.93 inHg , 1013.5 hPa
Clouds: Clear
Visibility: 10 miles , 16 km
2024/05/21 00:55 KF70 210055Z AUTO 20010KT 10SM CLR 20/10 A2993 RMK AO2
 
KRNM - Ramona, California, USA
Distance from station: ESE 27mi, 43km
Updated: Mon, 20-May-2024 5:53pm PDT
Clear
Clear
 Wind from WNW
Wind: WNW 9 mph , 15 km/h
Temperature: 64°F , 18°C
Dew Point: 52°F , 11°C
Humidity: 64%
Barometer: 29.93 inHg , 1013.5 hPa
Clouds: Clear
Visibility: 10 miles , 16 km
2024/05/21 00:53 KRNM 210053Z 29008KT 10SM CLR 18/11 A2993 RMK AO2 SLP127 T01830106
KMYF - San Diego/Mntgmy, California, USA
Distance from station: SSE 30mi, 48km
Updated: Mon, 20-May-2024 5:53pm PDT
Few Clouds
Few Clouds
 Wind from WSW
Wind: WSW 7 mph , 11 km/h
Temperature: 63°F , 17°C
Dew Point: 52°F , 11°C
Humidity: 68%
Barometer: 29.95 inHg , 1014.2 hPa
Clouds: Few Clouds
Visibility: 10 miles , 16 km
Cloud details: Few Clouds 2000 ft
2024/05/21 00:53 KMYF 210053Z 24006KT 10SM FEW020 17/11 A2995 RMK AO2 SLP138 T01720106
 
KSAN - San Diego, California, USA
Distance from station: SSE 34mi, 55km
Updated: Mon, 20-May-2024 5:51pm PDT
Partly cloudy
Partly cloudy
 Wind from W
Wind: W 9 mph , 15 km/h
Temperature: 64°F , 18°C
Dew Point: 54°F , 12°C
Humidity: 68%
Barometer: 29.96 inHg , 1014.6 hPa
Clouds: Partly cloudy
Visibility: 10 miles , 16 km
Cloud details: Partly cloudy 2100 ft
2024/05/21 00:51 KSAN 210051Z 28008KT 10SM SCT021 18/12 A2996 RMK AO2 SLP146 T01780117
KSEE - San Diego/Santee, California, USA
Distance from station: SE 34mi, 55km
Updated: Mon, 20-May-2024 5:47pm PDT
Clear
Clear
 Wind from W
Wind: W 9 mph , 15 km/h
Temperature: 68°F , 20°C
Dew Point: 52°F , 11°C
Humidity: 56%
Barometer: 29.94 inHg , 1013.9 hPa
Clouds: Clear
Visibility: 10 miles , 16 km
2024/05/21 00:47 KSEE 210047Z 26008KT 10SM SKC 20/11 A2994
 
KNZY - North Island Nas, California, USA
Distance from station: S 36mi, 58km
Updated: Mon, 20-May-2024 5:52pm PDT
Partly cloudy
Partly cloudy
 Wind from W
Wind: W 9 mph , 15 km/h
Temperature: 63°F , 17°C
Dew Point: 54°F , 12°C
Humidity: 73%
Barometer: 29.94 inHg , 1013.9 hPa
Clouds: Partly cloudy
Visibility: 10 miles , 16 km
Cloud details: Partly cloudy 2000 ft
2024/05/21 00:52 KNZY 210052Z 26008KT 10SM SCT020 17/12 A2994 RMK AO2 SLP139 T01670117 $
KHMT - Hemet, California, USA
Distance from station: NNE 40mi, 65km
Updated: Sun, 28-Apr-2024 9:55am PDT
NOT Current
Clear
Clear
 Wind from E
Wind: E 3 mph , 6 km/h
Temperature: 63°F , 17°C
Dew Point: 46°F , 8°C
Humidity: 56%
Barometer: 30.02 inHg , 1016.6 hPa
Clouds: Clear
Visibility: 10 miles , 16 km
2024/04/28 16:55 KHMT 281655Z AUTO 10003KT 10SM CLR 17/08 A3002 RMK AO2 T01750075
 
KSNA - Costa Mesa, California, USA
Distance from station: NW 44mi, 71km
Updated: Mon, 20-May-2024 5:53pm PDT
Partly cloudy
Partly cloudy
 Wind from WSW
Wind: WSW 7 mph , 11 km/h
Temperature: 64°F , 18°C
Dew Point: 52°F , 11°C
Humidity: 64%
Barometer: 29.93 inHg , 1013.5 hPa
Clouds: Partly cloudy
Visibility: 10 miles , 16 km
Cloud details: Few Clouds 2000 ft
Partly cloudy 3100 ft
2024/05/21 00:53 KSNA 210053Z 25006KT 10SM FEW020 SCT031 18/11 A2993 RMK AO2 SLP136 T01830106
KRIV - Riverside/March, California, USA
Distance from station: N 45mi, 73km
Updated: Mon, 20-May-2024 5:55pm PDT
Clear
Clear
 Wind from NW
Wind: NW 13 mph , 20 km/h
Temperature: 68°F , 20°C
Dew Point: 50°F , 10°C
Humidity: 53%
Barometer: 29.92 inHg , 1013.2 hPa
Clouds: Clear
Visibility: 10 miles , 16 km
2024/05/21 00:55 KRIV 210055Z AUTO 32011KT 10SM CLR 20/10 A2992 RMK AO2 SLP125 T01990103 PWINO $
 
KNRS - Imperial Beach, California, USA
Distance from station: SSE 46mi, 75km
Updated: Mon, 20-May-2024 5:53pm PDT
Few Clouds
Few Clouds
 Wind from W
Wind: W 7 mph , 11 km/h
Temperature: 64°F , 18°C
Dew Point: 55°F , 13°C
Humidity: 73%
Barometer: 29.96 inHg , 1014.6 hPa
Clouds: Few Clouds
Visibility: 10 miles , 16 km
Cloud details: Few Clouds 1700 ft
2024/05/21 00:53 KNRS 210053Z 27006KT 10SM FEW017 18/13 A2996 RMK AO2 SLP146 T01830128 $
KSDM - San Diego/Brown, California, USA
Distance from station: SSE 48mi, 76km
Updated: Mon, 20-May-2024 5:53pm PDT
Partly cloudy
Partly cloudy
 Wind from W
Wind: W 9 mph , 15 km/h
Temperature: 63°F , 17°C
Dew Point: 52°F , 11°C
Humidity: 68%
Barometer: 29.95 inHg , 1014.2 hPa
Clouds: Partly cloudy
Visibility: 10 miles , 16 km
Cloud details: Partly cloudy 1900 ft
2024/05/21 00:53 KSDM 210053Z 26008KT 10SM SCT019 17/11 A2995 RMK AO2 SLP140 T01670106
 
KAJO - Corona Muni, California, USA
Distance from station: NNW 50mi, 80km
Updated: Mon, 20-May-2024 5:56pm PDT
Clear
Clear
 Wind from WNW
Wind: WNW 13 mph , 20 km/h, Gust: 16 mph , 26 km/h
Temperature: 68°F , 20°C
Dew Point: 52°F , 11°C
Humidity: 56%
Barometer: 29.92 inHg , 1013.2 hPa
Clouds: Clear
Visibility: 10 miles , 16 km
2024/05/21 00:56 KAJO 210056Z AUTO 29011G14KT 10SM CLR 20/11 A2992 RMK AO2 SLP128 T02000111